Time;durP1;ratioP1;P1;durP2;ratioP2;P2;SDS_P1;SDS_P2;PMS_P1;PMS_P2;Temp;Humidity;BMP_temperature;BMP_pressure;BME280_temperature;BME280_humidity;BME280_pressure;Samples;Min_cycle;Max_cycle;Signal;HPM_P1;HPM_P2
2022/07/10 00:00:10;;;;;;;3.20;1.30;;;;;;;;;;4930579;28;20218;-84
2022/07/10 00:02:39;;;;;;;3.10;1.10;;;;;;;;;;4936342;28;20227;-82
2022/07/10 00:05:10;;;;;;;6.60;1.73;;;;;;;;;;4947866;28;20242;-83
2022/07/10 00:11:23;;;;;;;5.97;1.60;;;;;;;;;;4963160;23;20284;-71
2022/07/10 00:13:54;;;;;;;3.97;1.30;;;;;;;;;;4943170;28;20235;-72
2022/07/10 00:16:19;;;;;;;4.67;1.40;;;;;;;;;;4933712;28;20827;-72
2022/07/10 00:18:45;;;;;;;4.20;1.20;;;;;;;;;;4963661;28;20235;-72
2022/07/10 00:21:12;;;;;;;4.37;1.20;;;;;;;;;;4958331;28;20222;-71
2022/07/10 00:23:38;;;;;;;4.87;1.53;;;;;;;;;;4952989;28;20241;-73
2022/07/10 00:26:03;;;;;;;5.13;1.43;;;;;;;;;;4941115;28;20255;-73
2022/07/10 00:28:29;;;;;;;3.83;1.40;;;;;;;;;;4939936;28;20242;-72
2022/07/10 00:30:54;;;;;;;5.47;1.30;;;;;;;;;;4950808;28;20241;-72
2022/07/10 00:33:20;;;;;;;4.37;1.40;;;;;;;;;;4956523;28;20218;-72
2022/07/10 00:35:48;;;;;;;2.37;1.20;;;;;;;;;;4938208;28;20263;-72
2022/07/10 00:38:14;;;;;;;4.97;1.20;;;;;;;;;;4946589;28;20221;-73
2022/07/10 00:40:40;;;;;;;5.13;1.30;;;;;;;;;;4944031;28;20254;-73
2022/07/10 00:43:09;;;;;;;4.57;1.30;;;;;;;;;;4959464;28;20222;-72
2022/07/10 00:45:34;;;;;;;6.17;1.40;;;;;;;;;;4947201;28;20226;-72
2022/07/10 00:48:00;;;;;;;3.20;1.20;;;;;;;;;;4945347;28;20310;-72
2022/07/10 00:50:25;;;;;;;3.07;1.27;;;;;;;;;;4955291;28;20233;-73
2022/07/10 00:52:51;;;;;;;3.70;1.30;;;;;;;;;;4940573;28;20244;-72
2022/07/10 00:55:16;;;;;;;5.03;1.30;;;;;;;;;;4945743;28;20225;-72
2022/07/10 00:57:42;;;;;;;2.90;1.10;;;;;;;;;;4959540;28;20333;-72
2022/07/10 01:00:09;;;;;;;3.07;1.10;;;;;;;;;;4957202;28;20222;-72
2022/07/10 01:02:34;;;;;;;4.43;1.27;;;;;;;;;;4954529;28;20261;-72
2022/07/10 01:05:02;;;;;;;2.87;1.10;;;;;;;;;;4945801;28;20778;-72
2022/07/10 01:07:27;;;;;;;7.43;1.43;;;;;;;;;;4954182;28;20242;-73
2022/07/10 01:09:55;;;;;;;4.00;1.27;;;;;;;;;;4956210;28;20226;-73
2022/07/10 01:12:23;;;;;;;4.17;1.47;;;;;;;;;;4942580;28;20227;-72
2022/07/10 01:14:48;;;;;;;5.00;1.27;;;;;;;;;;4932318;28;20238;-72
2022/07/10 01:17:15;;;;;;;5.80;1.83;;;;;;;;;;4931818;28;20699;-73
2022/07/10 01:19:45;;;;;;;6.30;1.37;;;;;;;;;;4955991;28;20234;-73
2022/07/10 01:22:10;;;;;;;6.63;1.40;;;;;;;;;;4928268;28;20226;-73
2022/07/10 01:24:38;;;;;;;6.30;1.60;;;;;;;;;;4938888;28;20777;-72
2022/07/10 01:27:06;;;;;;;6.57;1.37;;;;;;;;;;4962206;28;20222;-73
2022/07/10 01:29:34;;;;;;;8.53;1.90;;;;;;;;;;4939995;28;20237;-73
2022/07/10 01:32:00;;;;;;;5.90;1.70;;;;;;;;;;4943283;28;20655;-72
2022/07/10 01:34:28;;;;;;;7.57;1.63;;;;;;;;;;4948304;28;20651;-72
2022/07/10 01:36:56;;;;;;;4.97;1.50;;;;;;;;;;4931941;28;20237;-72
2022/07/10 01:39:21;;;;;;;6.93;1.40;;;;;;;;;;4931063;28;20234;-72
2022/07/10 01:41:47;;;;;;;4.40;1.57;;;;;;;;;;4945485;28;20246;-72
2022/07/10 01:44:13;;;;;;;5.63;1.45;;;;;;;;;;4959347;28;20234;-73
2022/07/10 01:46:48;;;;;;;3.83;1.43;;;;;;;;;;4935051;28;20230;-72
2022/07/10 01:49:17;;;;;;;5.93;1.20;;;;;;;;;;4960766;28;20254;-72
2022/07/10 01:51:44;;;;;;;6.47;1.50;;;;;;;;;;4934100;28;20260;-71
2022/07/10 01:54:10;;;;;;;3.20;1.10;;;;;;;;;;4950148;28;20734;-72
2022/07/10 01:56:36;;;;;;;4.97;1.40;;;;;;;;;;4950294;28;20265;-72
2022/07/10 01:59:03;;;;;;;4.47;1.50;;;;;;;;;;4933982;28;20272;-72
2022/07/10 02:01:31;;;;;;;6.03;1.40;;;;;;;;;;4959599;28;20226;-72
2022/07/10 02:06:41;;;;;;;7.40;1.70;;;;;;;;;;4952113;28;20238;-72
2022/07/10 02:09:06;;;;;;;3.40;1.40;;;;;;;;;;4949114;28;20226;-72
2022/07/10 02:11:32;;;;;;;5.07;1.53;;;;;;;;;;4933242;28;20230;-74
2022/07/10 02:13:59;;;;;;;4.00;1.40;;;;;;;;;;4933552;28;20235;-73
2022/07/10 02:16:25;;;;;;;8.10;1.80;;;;;;;;;;4940207;28;20231;-73
2022/07/10 02:18:50;;;;;;;7.37;1.70;;;;;;;;;;4935057;28;20230;-72
2022/07/10 02:21:16;;;;;;;4.00;1.50;;;;;;;;;;4963258;28;20226;-71
2022/07/10 02:23:42;;;;;;;4.50;1.53;;;;;;;;;;4958562;28;20936;-72
2022/07/10 02:26:07;;;;;;;4.57;1.20;;;;;;;;;;4935482;28;20921;-72
2022/07/10 02:28:35;;;;;;;7.40;1.50;;;;;;;;;;4943868;28;20798;-72
2022/07/10 02:31:00;;;;;;;3.73;1.17;;;;;;;;;;4930172;28;20225;-72
2022/07/10 02:33:26;;;;;;;9.57;1.77;;;;;;;;;;4947395;28;20234;-72
2022/07/10 02:35:54;;;;;;;5.90;1.90;;;;;;;;;;4955763;28;20284;-72
2022/07/10 02:38:22;;;;;;;6.50;1.43;;;;;;;;;;4924516;28;20229;-72
2022/07/10 02:40:47;;;;;;;4.70;1.37;;;;;;;;;;4949828;28;20222;-73
2022/07/10 02:43:14;;;;;;;5.37;1.57;;;;;;;;;;4944309;28;20657;-72
2022/07/10 02:45:47;;;;;;;5.60;1.50;;;;;;;;;;4950838;28;20704;-72
2022/07/10 02:48:15;;;;;;;4.40;1.60;;;;;;;;;;4948735;28;20226;-72
2022/07/10 02:50:46;;;;;;;5.97;1.53;;;;;;;;;;4959605;28;20337;-72
2022/07/10 02:53:11;;;;;;;4.57;1.23;;;;;;;;;;4932241;28;20258;-72
2022/07/10 02:55:37;;;;;;;5.60;1.40;;;;;;;;;;4942471;28;20584;-72
2022/07/10 02:58:03;;;;;;;5.30;1.63;;;;;;;;;;4946257;28;20238;-72
2022/07/10 03:00:33;;;;;;;4.67;1.60;;;;;;;;;;4962073;28;20231;-72
2022/07/10 03:03:01;;;;;;;6.63;1.40;;;;;;;;;;4947492;28;20235;-71
2022/07/10 03:05:29;;;;;;;7.27;1.60;;;;;;;;;;4923687;28;20231;-70
2022/07/10 03:07:55;;;;;;;3.77;1.40;;;;;;;;;;4929640;28;20238;-71
2022/07/10 03:10:23;;;;;;;3.57;1.50;;;;;;;;;;4957784;28;20226;-72
2022/07/10 03:12:51;;;;;;;4.60;1.40;;;;;;;;;;4940507;28;20235;-72
2022/07/10 03:15:19;;;;;;;3.97;1.23;;;;;;;;;;4958184;28;20222;-72
2022/07/10 03:17:47;;;;;;;6.67;1.40;;;;;;;;;;4959636;28;20234;-73
2022/07/10 03:20:15;;;;;;;7.93;1.53;;;;;;;;;;4939376;28;20262;-72
2022/07/10 03:22:43;;;;;;;5.27;1.40;;;;;;;;;;4946990;28;20243;-72
2022/07/10 03:25:11;;;;;;;6.20;1.43;;;;;;;;;;4958782;28;20226;-72
2022/07/10 03:27:37;;;;;;;3.53;1.30;;;;;;;;;;4949101;28;20222;-73
2022/07/10 03:30:05;;;;;;;3.53;1.37;;;;;;;;;;4948760;28;20703;-73
2022/07/10 03:32:35;;;;;;;4.80;1.33;;;;;;;;;;4950465;28;20230;-73
2022/07/10 03:35:04;;;;;;;5.83;1.30;;;;;;;;;;4961699;28;20234;-73
2022/07/10 03:37:31;;;;;;;3.50;1.23;;;;;;;;;;4926155;28;20348;-73
2022/07/10 03:39:57;;;;;;;3.27;1.30;;;;;;;;;;4940067;28;20226;-72
2022/07/10 03:42:27;;;;;;;4.40;1.40;;;;;;;;;;4957150;28;20288;-72
2022/07/10 03:44:52;;;;;;;7.33;1.60;;;;;;;;;;4958013;28;20235;-73
2022/07/10 03:47:20;;;;;;;6.57;1.40;;;;;;;;;;4959293;28;20607;-72
2022/07/10 03:49:48;;;;;;;4.27;1.50;;;;;;;;;;4951427;28;20238;-72
2022/07/10 03:52:15;;;;;;;3.40;1.10;;;;;;;;;;4925005;28;20286;-74
2022/07/10 03:54:41;;;;;;;5.70;1.70;;;;;;;;;;4931554;28;20258;-73
2022/07/10 03:59:53;;;;;;;3.57;1.40;;;;;;;;;;4945805;28;20637;-73
2022/07/10 04:02:18;;;;;;;5.50;1.60;;;;;;;;;;4957203;28;20278;-73
2022/07/10 04:04:51;;;;;;;4.80;1.70;;;;;;;;;;4941802;28;20238;-74
2022/07/10 04:07:17;;;;;;;3.37;1.20;;;;;;;;;;4955029;28;20237;-72
2022/07/10 04:09:42;;;;;;;4.27;1.47;;;;;;;;;;4947191;28;20235;-73
2022/07/10 04:12:08;;;;;;;5.63;1.73;;;;;;;;;;4962020;28;20223;-73
2022/07/10 04:14:36;;;;;;;5.27;1.30;;;;;;;;;;4947354;28;20223;-73
2022/07/10 04:17:09;;;;;;;8.37;1.60;;;;;;;;;;4947756;28;20272;-73
2022/07/10 04:19:37;;;;;;;3.93;1.27;;;;;;;;;;4927296;28;20231;-73
2022/07/10 04:22:04;;;;;;;6.57;1.43;;;;;;;;;;4977385;28;20223;-73
2022/07/10 04:24:30;;;;;;;3.77;1.40;;;;;;;;;;4977491;28;20627;-72
2022/07/10 04:26:55;;;;;;;6.80;1.70;;;;;;;;;;4935427;28;20230;-74
2022/07/10 04:29:23;;;;;;;6.43;1.80;;;;;;;;;;4943452;28;20279;-73
2022/07/10 04:31:48;;;;;;;7.13;1.73;;;;;;;;;;4942453;28;20219;-74
2022/07/10 04:34:17;;;;;;;6.38;1.60;;;;;;;;;;4955584;28;20288;-74
2022/07/10 04:36:47;;;;;;;5.97;1.40;;;;;;;;;;4941637;28;20723;-73
2022/07/10 04:39:15;;;;;;;4.67;1.33;;;;;;;;;;4947667;28;20791;-73
2022/07/10 04:41:48;;;;;;;6.37;1.60;;;;;;;;;;4941287;28;20246;-73
2022/07/10 04:44:16;;;;;;;7.33;1.70;;;;;;;;;;4962665;28;20287;-74
2022/07/10 04:46:47;;;;;;;2.77;1.27;;;;;;;;;;4929722;28;20242;-74
2022/07/10 04:49:15;;;;;;;5.53;1.30;;;;;;;;;;4942976;28;20221;-73
2022/07/10 04:51:45;;;;;;;5.83;1.40;;;;;;;;;;4956668;28;20226;-73
2022/07/10 04:54:12;;;;;;;4.00;1.30;;;;;;;;;;4952664;28;20226;-73
2022/07/10 04:56:40;;;;;;;3.67;1.73;;;;;;;;;;4946144;28;20752;-75
2022/07/10 04:59:09;;;;;;;4.70;1.50;;;;;;;;;;4931595;28;20234;-73
2022/07/10 05:01:37;;;;;;;5.00;1.50;;;;;;;;;;4941779;28;20696;-73
2022/07/10 05:04:02;;;;;;;4.50;1.80;;;;;;;;;;4948841;28;20238;-72
2022/07/10 05:06:30;;;;;;;5.30;1.70;;;;;;;;;;4957190;28;20222;-72
2022/07/10 05:08:56;;;;;;;6.77;1.70;;;;;;;;;;4957945;28;20233;-72
2022/07/10 05:11:27;;;;;;;6.87;1.83;;;;;;;;;;4935671;28;20239;-72
2022/07/10 05:13:52;;;;;;;11.07;2.00;;;;;;;;;;4953585;28;20280;-72
2022/07/10 05:16:18;;;;;;;5.90;1.60;;;;;;;;;;4942041;28;20322;-73
2022/07/10 05:18:44;;;;;;;5.50;1.65;;;;;;;;;;4942130;28;20684;-71
2022/07/10 05:21:09;;;;;;;5.20;1.70;;;;;;;;;;4958362;28;20279;-71
2022/07/10 05:23:39;;;;;;;4.50;1.50;;;;;;;;;;4954913;28;20601;-71
2022/07/10 05:26:05;;;;;;;4.87;2.00;;;;;;;;;;4935775;28;20257;-71
2022/07/10 05:28:31;;;;;;;7.30;1.83;;;;;;;;;;4921246;28;20758;-71
2022/07/10 05:30:58;;;;;;;4.60;1.55;;;;;;;;;;4927551;28;20371;-72
2022/07/10 05:33:26;;;;;;;7.00;1.75;;;;;;;;;;4959696;28;20640;-73
2022/07/10 05:35:51;;;;;;;5.85;1.83;;;;;;;;;;4949213;28;20713;-73
2022/07/10 05:38:17;;;;;;;7.72;1.70;;;;;;;;;;4957919;28;20238;-71
2022/07/10 05:40:45;;;;;;;7.82;1.88;;;;;;;;;;4967720;23;20222;-83
2022/07/10 05:46:59;;;;;;;4.72;1.85;;;;;;;;;;4981116;23;20187;-72
2022/07/10 05:49:27;;;;;;;5.68;1.83;;;;;;;;;;4979301;28;20236;-71
2022/07/10 05:52:04;;;;;;;5.53;2.00;;;;;;;;;;4987824;28;20257;-71
2022/07/10 05:54:29;;;;;;;5.25;1.63;;;;;;;;;;5011097;28;20314;-72
2022/07/10 05:56:55;;;;;;;5.50;1.90;;;;;;;;;;4991187;28;20331;-71
2022/07/10 05:59:20;;;;;;;7.82;1.95;;;;;;;;;;5026763;28;20291;-71
2022/07/10 06:01:47;;;;;;;8.32;2.40;;;;;;;;;;4989549;28;20228;-72
2022/07/10 06:08:07;;;;;;;8.75;2.00;;;;;;;;;;4946590;28;20305;-82
2022/07/10 06:10:33;;;;;;;6.32;2.00;;;;;;;;;;4938008;28;20256;-82
2022/07/10 06:12:58;;;;;;;7.22;2.35;;;;;;;;;;4907057;28;20221;-83
2022/07/10 06:15:24;;;;;;;9.02;2.10;;;;;;;;;;4909767;28;20263;-80
2022/07/10 06:17:49;;;;;;;9.88;2.38;;;;;;;;;;4924910;28;20224;-85
2022/07/10 06:20:15;;;;;;;5.50;1.98;;;;;;;;;;4919144;28;20255;-82
2022/07/10 06:22:43;;;;;;;8.02;2.20;;;;;;;;;;4922607;28;20224;-85
2022/07/10 06:25:09;;;;;;;7.68;2.33;;;;;;;;;;4928780;28;20557;-84
2022/07/10 06:27:36;;;;;;;5.32;2.05;;;;;;;;;;4924910;28;20230;-83
2022/07/10 06:30:02;;;;;;;7.55;2.10;;;;;;;;;;4927574;28;20262;-83
2022/07/10 06:32:28;;;;;;;8.75;2.28;;;;;;;;;;4928009;28;20228;-83
2022/07/10 06:34:56;;;;;;;7.93;2.05;;;;;;;;;;4904419;28;20228;-82
2022/07/10 06:37:27;;;;;;;6.75;2.40;;;;;;;;;;4918748;28;20258;-83
2022/07/10 06:39:53;;;;;;;5.10;2.15;;;;;;;;;;4981707;23;20285;-72
2022/07/10 06:42:21;;;;;;;7.90;1.80;;;;;;;;;;4915079;28;20224;-71
2022/07/10 06:44:49;;;;;;;6.78;2.28;;;;;;;;;;4873930;28;20255;-70
2022/07/10 06:50:05;;;;;;;5.28;2.15;;;;;;;;;;4935556;29;20750;-82
2022/07/10 06:52:40;;;;;;;5.68;2.15;;;;;;;;;;4931061;28;20608;-81
2022/07/10 06:58:56;;;;;;;9.27;2.35;;;;;;;;;;4957766;28;20301;-84
2022/07/10 07:01:25;;;;;;;10.32;2.38;;;;;;;;;;4915977;28;20297;-81
2022/07/10 07:04:15;;;;;;;6.90;2.17;;;;;;;;;;4935732;28;20232;-81
2022/07/10 07:06:41;;;;;;;8.48;2.28;;;;;;;;;;4966639;28;20238;-85
2022/07/10 07:09:08;;;;;;;12.25;2.45;;;;;;;;;;4934389;28;20274;-85
2022/07/10 07:11:34;;;;;;;10.85;2.30;;;;;;;;;;4932894;28;20600;-84
2022/07/10 07:14:00;;;;;;;4.97;2.10;;;;;;;;;;4923017;23;20236;-73
2022/07/10 07:16:38;;;;;;;7.10;2.70;;;;;;;;;;4895998;28;20237;-72
2022/07/10 07:19:04;;;;;;;6.72;2.20;;;;;;;;;;4878269;28;20733;-72
2022/07/10 07:24:15;;;;;;;8.85;2.13;;;;;;;;;;4901166;28;20418;-72
2022/07/10 07:26:41;;;;;;;4.88;1.95;;;;;;;;;;4884542;28;20315;-72
2022/07/10 07:29:06;;;;;;;7.65;2.40;;;;;;;;;;4905404;28;20280;-73
2022/07/10 07:31:34;;;;;;;7.15;2.53;;;;;;;;;;4902459;28;20255;-71
2022/07/10 07:34:06;;;;;;;5.60;2.50;;;;;;;;;;4909646;28;20232;-74
2022/07/10 07:36:32;;;;;;;8.63;2.33;;;;;;;;;;4877826;28;20250;-73
2022/07/10 07:38:58;;;;;;;7.75;2.30;;;;;;;;;;5007409;23;20795;-82
2022/07/10 07:41:24;;;;;;;9.35;2.30;;;;;;;;;;4899927;28;20212;-85
2022/07/10 07:43:56;;;;;;;7.05;2.25;;;;;;;;;;4939940;28;20302;-86
2022/07/10 07:46:24;;;;;;;8.07;2.22;;;;;;;;;;4939760;28;20229;-83
2022/07/10 07:48:50;;;;;;;6.72;2.42;;;;;;;;;;4889402;29;20808;-83
2022/07/10 07:51:17;;;;;;;5.70;2.42;;;;;;;;;;4926141;28;20228;-83
2022/07/10 07:53:43;;;;;;;8.15;2.33;;;;;;;;;;4903293;28;20700;-83
2022/07/10 07:56:09;;;;;;;8.88;2.80;;;;;;;;;;4920904;28;20590;-85
2022/07/10 07:58:37;;;;;;;7.75;2.20;;;;;;;;;;4898270;28;20223;-80
2022/07/10 08:01:02;;;;;;;9.63;2.42;;;;;;;;;;4925361;28;20231;-82
2022/07/10 08:03:28;;;;;;;7.78;2.22;;;;;;;;;;4887847;28;20255;-79
2022/07/10 08:05:53;;;;;;;8.55;2.35;;;;;;;;;;4919620;28;20235;-83
2022/07/10 08:08:19;;;;;;;9.23;2.42;;;;;;;;;;4924389;28;20211;-84
2022/07/10 08:10:46;;;;;;;9.52;3.05;;;;;;;;;;4940681;28;20234;-85
2022/07/10 08:13:13;;;;;;;5.93;2.25;;;;;;;;;;4903221;28;20219;-83
2022/07/10 08:15:38;;;;;;;9.57;2.53;;;;;;;;;;4922587;28;20227;-86
2022/07/10 08:18:04;;;;;;;8.77;2.17;;;;;;;;;;4911866;28;20595;-84
2022/07/10 08:20:32;;;;;;;6.65;2.17;;;;;;;;;;4911919;28;20266;-85
2022/07/10 08:22:58;;;;;;;9.63;2.30;;;;;;;;;;4907355;28;20520;-83
2022/07/10 08:25:23;;;;;;;9.10;2.58;;;;;;;;;;4925692;28;20219;-81
2022/07/10 08:27:51;;;;;;;6.85;2.53;;;;;;;;;;4918681;28;20265;-83
2022/07/10 08:30:17;;;;;;;8.15;2.10;;;;;;;;;;4925039;28;20220;-84
2022/07/10 08:32:43;;;;;;;6.18;2.22;;;;;;;;;;4919218;28;20224;-83
2022/07/10 08:35:13;;;;;;;6.95;2.10;;;;;;;;;;4898507;28;20228;-84
2022/07/10 08:37:42;;;;;;;10.88;2.28;;;;;;;;;;4916031;28;20238;-84
2022/07/10 08:40:11;;;;;;;9.80;2.60;;;;;;;;;;4931722;28;20239;-82
2022/07/10 08:42:36;;;;;;;6.97;2.42;;;;;;;;;;4898898;28;20234;-86
2022/07/10 08:45:02;;;;;;;7.45;2.28;;;;;;;;;;4914210;28;20227;-85
2022/07/10 08:47:31;;;;;;;7.63;2.40;;;;;;;;;;4924188;28;20227;-87
2022/07/10 08:49:56;;;;;;;9.15;2.40;;;;;;;;;;4895393;28;20248;-86
2022/07/10 08:52:27;;;;;;;8.65;2.10;;;;;;;;;;4980850;28;20271;-83
2022/07/10 08:54:53;;;;;;;7.78;2.40;;;;;;;;;;4941652;28;20231;-84
2022/07/10 08:57:18;;;;;;;6.68;2.33;;;;;;;;;;4895414;28;20240;-84
2022/07/10 08:59:44;;;;;;;5.82;2.05;;;;;;;;;;4922031;28;20235;-84
2022/07/10 09:02:12;;;;;;;9.77;2.55;;;;;;;;;;4912719;28;20253;-82
2022/07/10 09:04:38;;;;;;;8.75;2.45;;;;;;;;;;4900470;28;20223;-83
2022/07/10 09:07:04;;;;;;;8.93;2.28;;;;;;;;;;4939725;28;20633;-85
2022/07/10 09:09:29;;;;;;;8.60;1.98;;;;;;;;;;4945920;28;20635;-87
2022/07/10 09:11:58;;;;;;;9.52;2.53;;;;;;;;;;4905712;28;20286;-87
2022/07/10 09:14:25;;;;;;;10.30;2.40;;;;;;;;;;4909009;28;20213;-85
2022/07/10 09:16:54;;;;;;;9.48;2.10;;;;;;;;;;4915028;28;20239;-81
2022/07/10 09:19:37;;;;;;;11.63;2.88;;;;;;;;;;4934290;28;20219;-83
2022/07/10 09:22:10;;;;;;;8.88;2.58;;;;;;;;;;4907371;28;20231;-83
2022/07/10 09:24:42;;;;;;;6.78;2.08;;;;;;;;;;4904935;28;20284;-83
2022/07/10 09:27:08;;;;;;;6.65;2.40;;;;;;;;;;4929874;28;20263;-85
2022/07/10 09:29:54;;;;;;;9.63;2.10;;;;;;;;;;4901398;28;20700;-84
2022/07/10 09:32:20;;;;;;;7.97;2.28;;;;;;;;;;4909928;28;20319;-81
2022/07/10 09:34:47;;;;;;;6.57;2.17;;;;;;;;;;4938136;28;20235;-83
2022/07/10 09:37:19;;;;;;;7.75;2.20;;;;;;;;;;4985517;28;20228;-86
2022/07/10 09:39:57;;;;;;;8.10;2.22;;;;;;;;;;4911941;28;20254;-87
2022/07/10 09:42:31;;;;;;;6.13;2.20;;;;;;;;;;4913289;28;20313;-84
2022/07/10 09:45:10;;;;;;;8.90;2.65;;;;;;;;;;4909526;28;20973;-83
2022/07/10 09:47:36;;;;;;;8.18;2.45;;;;;;;;;;4921074;28;20243;-83
2022/07/10 09:50:03;;;;;;;24.08;3.28;;;;;;;;;;4984802;28;20790;-84
2022/07/10 09:52:28;;;;;;;7.45;2.17;;;;;;;;;;4908881;28;20226;-80
2022/07/10 09:54:55;;;;;;;5.07;1.95;;;;;;;;;;4912469;28;20219;-85
2022/07/10 09:57:23;;;;;;;6.85;2.10;;;;;;;;;;4934579;28;20231;-85
2022/07/10 09:59:51;;;;;;;6.53;2.22;;;;;;;;;;4974353;28;20935;-85
2022/07/10 10:02:17;;;;;;;6.68;2.13;;;;;;;;;;4931608;28;20226;-82
2022/07/10 10:04:43;;;;;;;6.78;2.05;;;;;;;;;;4913156;28;20276;-79
2022/07/10 10:07:10;;;;;;;8.50;2.25;;;;;;;;;;4937833;28;20292;-86
2022/07/10 10:09:43;;;;;;;9.75;2.45;;;;;;;;;;4931978;28;21600;-84
2022/07/10 10:12:13;;;;;;;7.63;2.42;;;;;;;;;;4907056;28;20230;-82
2022/07/10 10:14:38;;;;;;;6.88;2.40;;;;;;;;;;4921763;28;20228;-82
2022/07/10 10:17:04;;;;;;;9.70;2.17;;;;;;;;;;4924775;28;20568;-83
2022/07/10 10:22:16;;;;;;;10.95;2.28;;;;;;;;;;4930658;28;20227;-84
2022/07/10 10:24:42;;;;;;;5.70;2.00;;;;;;;;;;4900528;28;20220;-81
2022/07/10 10:27:10;;;;;;;8.20;2.13;;;;;;;;;;4937476;28;20246;-86
2022/07/10 10:29:36;;;;;;;6.47;2.08;;;;;;;;;;4928940;28;20224;-84
2022/07/10 10:32:01;;;;;;;6.63;1.85;;;;;;;;;;4940889;28;20688;-82
2022/07/10 10:34:43;;;;;;;5.07;1.42;;;;;;;;;;4926844;28;20238;-85
2022/07/10 10:37:38;;;;;;;6.40;1.63;;;;;;;;;;4919315;28;20231;-87
2022/07/10 10:40:05;;;;;;;6.78;1.98;;;;;;;;;;4918435;28;20737;-84
2022/07/10 10:42:44;;;;;;;3.95;1.50;;;;;;;;;;4894649;28;20243;-87
2022/07/10 10:45:32;;;;;;;5.05;1.40;;;;;;;;;;4918901;28;20225;-77
2022/07/10 10:47:58;;;;;;;3.88;1.70;;;;;;;;;;4916076;28;20234;-79
2022/07/10 10:50:49;;;;;;;6.45;2.20;;;;;;;;;;4914475;28;20228;-81
2022/07/10 10:53:19;;;;;;;5.82;2.03;;;;;;;;;;4917076;28;20236;-81
2022/07/10 10:56:00;;;;;;;8.60;2.15;;;;;;;;;;4904204;28;20587;-80
2022/07/10 10:58:41;;;;;;;6.82;2.00;;;;;;;;;;4906185;28;20220;-81
2022/07/10 11:01:20;;;;;;;5.20;2.00;;;;;;;;;;4908821;28;20704;-80
2022/07/10 11:04:04;;;;;;;5.30;2.00;;;;;;;;;;4920421;28;20241;-83
2022/07/10 11:07:00;;;;;;;8.05;2.40;;;;;;;;;;4922495;28;20239;-79
2022/07/10 11:09:27;;;;;;;7.95;2.10;;;;;;;;;;4943387;28;20224;-81
2022/07/10 11:12:05;;;;;;;10.40;2.35;;;;;;;;;;4917670;28;20228;-79
2022/07/10 11:14:36;;;;;;;6.10;2.08;;;;;;;;;;4921366;28;20231;-79
2022/07/10 11:17:07;;;;;;;7.18;2.50;;;;;;;;;;4900073;28;20231;-79
2022/07/10 11:19:33;;;;;;;7.25;2.10;;;;;;;;;;4925767;28;20231;-79
2022/07/10 11:22:38;;;;;;;7.53;2.25;;;;;;;;;;4898160;28;20236;-78
2022/07/10 11:25:28;;;;;;;7.95;1.98;;;;;;;;;;4914377;28;20251;-78
2022/07/10 11:28:08;;;;;;;5.32;1.85;;;;;;;;;;4938486;28;20234;-77
2022/07/10 11:31:12;;;;;;;5.20;1.88;;;;;;;;;;4945078;28;20283;-80
2022/07/10 11:33:43;;;;;;;8.23;2.22;;;;;;;;;;4939947;28;20220;-80
2022/07/10 11:36:25;;;;;;;5.85;2.00;;;;;;;;;;4900698;28;20258;-82
2022/07/10 11:39:03;;;;;;;6.47;2.10;;;;;;;;;;4941194;28;20235;-80
2022/07/10 11:41:29;;;;;;;4.97;1.95;;;;;;;;;;4921342;28;20238;-80
2022/07/10 11:44:00;;;;;;;6.60;1.73;;;;;;;;;;4933943;28;20283;-81
2022/07/10 11:46:33;;;;;;;8.35;1.90;;;;;;;;;;4906917;28;20231;-79
2022/07/10 11:48:59;;;;;;;9.00;2.25;;;;;;;;;;4914650;28;20677;-81
2022/07/10 11:51:39;;;;;;;7.13;2.00;;;;;;;;;;4915771;28;20227;-80
2022/07/10 11:54:15;;;;;;;8.98;2.38;;;;;;;;;;4910153;28;20238;-78
2022/07/10 11:56:46;;;;;;;7.13;2.30;;;;;;;;;;4909513;28;20873;-82
2022/07/10 11:59:12;;;;;;;8.20;2.30;;;;;;;;;;5009262;28;20224;-82
2022/07/10 12:01:42;;;;;;;9.95;2.53;;;;;;;;;;4921541;28;20239;-81
2022/07/10 12:04:08;;;;;;;7.45;2.22;;;;;;;;;;4908066;28;20701;-82
2022/07/10 12:06:35;;;;;;;8.88;2.58;;;;;;;;;;4917739;28;20745;-85
2022/07/10 12:09:19;;;;;;;9.23;2.83;;;;;;;;;;4949910;28;20228;-83
2022/07/10 12:12:06;;;;;;;6.93;2.20;;;;;;;;;;4919118;28;20310;-81
2022/07/10 12:14:32;;;;;;;7.47;2.38;;;;;;;;;;4900720;28;20235;-79
2022/07/10 12:16:58;;;;;;;5.90;2.15;;;;;;;;;;4912711;28;20290;-82
2022/07/10 12:19:25;;;;;;;10.52;2.38;;;;;;;;;;4908249;28;20220;-82
2022/07/10 12:22:01;;;;;;;8.05;2.40;;;;;;;;;;4903381;28;20248;-80
2022/07/10 12:24:29;;;;;;;7.38;2.13;;;;;;;;;;4927909;28;20274;-80
2022/07/10 12:26:55;;;;;;;7.38;2.50;;;;;;;;;;4922385;28;20226;-78
2022/07/10 12:29:28;;;;;;;7.60;2.22;;;;;;;;;;4899254;28;20310;-82
2022/07/10 12:31:55;;;;;;;7.72;2.22;;;;;;;;;;4918462;28;20719;-83
2022/07/10 12:34:46;;;;;;;7.63;1.80;;;;;;;;;;4917183;28;20223;-78
2022/07/10 12:37:12;;;;;;;5.22;1.90;;;;;;;;;;4903244;28;20610;-80
2022/07/10 12:39:54;;;;;;;7.18;1.77;;;;;;;;;;4931269;28;20216;-79
2022/07/10 12:42:29;;;;;;;4.25;1.60;;;;;;;;;;4912923;28;20235;-83
2022/07/10 12:45:13;;;;;;;5.88;1.50;;;;;;;;;;4909299;28;20230;-81
2022/07/10 12:47:50;;;;;;;6.72;2.00;;;;;;;;;;4914863;28;20365;-79
2022/07/10 12:50:17;;;;;;;7.13;1.70;;;;;;;;;;4986763;28;20231;-81
2022/07/10 12:52:45;;;;;;;8.27;1.90;;;;;;;;;;4910178;28;20274;-82
2022/07/10 12:55:21;;;;;;;8.20;2.22;;;;;;;;;;4914458;28;20302;-81
2022/07/10 12:57:57;;;;;;;4.78;1.77;;;;;;;;;;4912161;28;20240;-82
2022/07/10 13:00:29;;;;;;;5.25;1.80;;;;;;;;;;4935297;28;20894;-83
2022/07/10 13:03:08;;;;;;;6.40;1.90;;;;;;;;;;4931137;28;20235;-79
2022/07/10 13:05:44;;;;;;;4.90;1.70;;;;;;;;;;4920584;28;20228;-81
2022/07/10 13:08:15;;;;;;;8.90;2.10;;;;;;;;;;4932020;28;20223;-82
2022/07/10 13:10:41;;;;;;;6.13;2.20;;;;;;;;;;4946025;28;20708;-83
2022/07/10 13:13:07;;;;;;;8.90;1.98;;;;;;;;;;4905856;28;20330;-82
2022/07/10 13:15:40;;;;;;;6.47;2.17;;;;;;;;;;4882968;28;20293;-81
2022/07/10 13:18:12;;;;;;;8.50;2.25;;;;;;;;;;4910358;28;20239;-81
2022/07/10 13:20:38;;;;;;;5.80;1.85;;;;;;;;;;4919591;28;20228;-82
2022/07/10 13:23:06;;;;;;;5.65;1.63;;;;;;;;;;4907032;28;20220;-83
2022/07/10 13:25:34;;;;;;;5.85;1.73;;;;;;;;;;4913489;28;20231;-82
2022/07/10 13:28:00;;;;;;;5.60;1.70;;;;;;;;;;4910186;28;20290;-80
2022/07/10 13:30:27;;;;;;;7.05;1.80;;;;;;;;;;4897110;28;20224;-82
2022/07/10 13:32:53;;;;;;;4.93;1.77;;;;;;;;;;4912806;28;20227;-81
2022/07/10 13:35:20;;;;;;;7.15;1.60;;;;;;;;;;4908879;28;20227;-83
2022/07/10 13:37:46;;;;;;;6.00;1.90;;;;;;;;;;4901927;28;20322;-81
2022/07/10 13:40:12;;;;;;;7.68;2.13;;;;;;;;;;4998732;28;20242;-79
2022/07/10 13:42:38;;;;;;;4.38;1.80;;;;;;;;;;4912393;28;20240;-81
2022/07/10 13:45:04;;;;;;;7.45;1.85;;;;;;;;;;4893158;28;21154;-82
2022/07/10 13:47:29;;;;;;;6.82;1.90;;;;;;;;;;4901383;28;20220;-82
2022/07/10 13:50:24;;;;;;;7.80;1.92;;;;;;;;;;4919535;28;20236;-79
2022/07/10 13:52:49;;;;;;;5.65;1.90;;;;;;;;;;4921244;28;20228;-81
2022/07/10 13:55:16;;;;;;;6.57;1.90;;;;;;;;;;4922753;28;20234;-81
2022/07/10 13:57:41;;;;;;;4.97;1.85;;;;;;;;;;4898943;28;20231;-82
2022/07/10 14:00:07;;;;;;;9.65;2.08;;;;;;;;;;4950203;28;20238;-83
2022/07/10 14:02:37;;;;;;;4.75;1.65;;;;;;;;;;4915572;28;20246;-82
2022/07/10 14:05:05;;;;;;;7.05;1.65;;;;;;;;;;4897632;28;20252;-81
2022/07/10 14:07:32;;;;;;;8.07;1.98;;;;;;;;;;4938853;28;20230;-81
2022/07/10 14:10:04;;;;;;;4.15;1.80;;;;;;;;;;4907780;28;20246;-84
2022/07/10 14:12:30;;;;;;;9.27;2.15;;;;;;;;;;4918219;28;20224;-80
2022/07/10 14:14:57;;;;;;;6.63;2.10;;;;;;;;;;4912689;28;20224;-80
2022/07/10 14:17:23;;;;;;;7.82;1.98;;;;;;;;;;4930070;28;20743;-83
2022/07/10 14:19:49;;;;;;;8.27;2.08;;;;;;;;;;4909504;28;20616;-83
2022/07/10 14:22:17;;;;;;;8.65;2.17;;;;;;;;;;4913463;28;20228;-80
2022/07/10 14:24:43;;;;;;;9.25;2.00;;;;;;;;;;4911322;28;20242;-81
2022/07/10 14:27:08;;;;;;;11.38;2.20;;;;;;;;;;4918294;28;20227;-79
2022/07/10 14:29:34;;;;;;;7.05;2.00;;;;;;;;;;4925123;28;20231;-83
2022/07/10 14:31:59;;;;;;;4.28;1.67;;;;;;;;;;4907151;28;20230;-80
2022/07/10 14:34:27;;;;;;;6.28;1.80;;;;;;;;;;4914212;28;20237;-81
2022/07/10 14:36:53;;;;;;;8.55;2.53;;;;;;;;;;4922372;28;20274;-82
2022/07/10 14:39:19;;;;;;;6.03;2.20;;;;;;;;;;4946511;28;20236;-80
2022/07/10 14:41:45;;;;;;;5.70;1.67;;;;;;;;;;4926164;28;20274;-80
2022/07/10 14:44:10;;;;;;;9.55;2.13;;;;;;;;;;4911513;28;20234;-81
2022/07/10 14:46:36;;;;;;;4.88;1.80;;;;;;;;;;4940179;28;20239;-81
2022/07/10 14:49:03;;;;;;;7.80;2.20;;;;;;;;;;4926458;28;20215;-81
2022/07/10 14:51:31;;;;;;;7.53;2.03;;;;;;;;;;4901056;28;20299;-83
2022/07/10 14:53:57;;;;;;;6.97;1.83;;;;;;;;;;4920123;28;20830;-80
2022/07/10 14:56:23;;;;;;;4.50;1.50;;;;;;;;;;4910273;28;20245;-81
2022/07/10 14:58:48;;;;;;;3.35;1.65;;;;;;;;;;4921500;28;20228;-82
2022/07/10 15:01:16;;;;;;;7.25;1.80;;;;;;;;;;4907062;28;20227;-82
2022/07/10 15:03:42;;;;;;;8.40;2.20;;;;;;;;;;4918490;28;20238;-82
2022/07/10 15:06:10;;;;;;;7.78;2.13;;;;;;;;;;4932221;28;20236;-82
2022/07/10 15:08:38;;;;;;;5.82;1.60;;;;;;;;;;4917519;28;20688;-81
2022/07/10 15:11:07;;;;;;;4.82;1.65;;;;;;;;;;4914206;28;20339;-81
2022/07/10 15:13:32;;;;;;;6.57;2.00;;;;;;;;;;4913222;28;20266;-86
2022/07/10 15:15:59;;;;;;;5.95;1.73;;;;;;;;;;4923547;28;20235;-80
2022/07/10 15:18:24;;;;;;;9.80;1.95;;;;;;;;;;4937060;28;20290;-83
2022/07/10 15:20:50;;;;;;;6.35;1.95;;;;;;;;;;4907624;28;20254;-81